Hauptseite
METAR-TAF:

METAR-TAF

Flughäfen :

Farnborough Airfield

Farnborough, England

Breite: 51-17N, Länge: 000-46W, Höhe: 65 m

Beobachtung

Neuester Wetterbericht von vor 37 Minuten, um 15:20 UTC
Wind 7 kt aus Nord/Nordwest, variierte zwischen West/Nordwest und Nordost
Temperatur 22°C
Luftfeuchtigkeit 60%
Luftdruck 1020 hPa
Sichtweite 10 km oder mehr
Leicht bewölkt in der Höhe von 3400 ft
Aufgelockert bewölkt in der Höhe von 4300 ft

METAR: EGLF 231520Z 33007KT 290V050 9999 FEW034 SCT043 22/14 Q1020

Zeit: 16:57 (15:57 UTC)

Prognose

Neuester Wetterbericht von vor 1 Stunde und 6 Minuten, um 14:51 UTC
Gültige Prognose vom 23 um 15 UTC bis 23 um 21 UTC
Wind 5 kt aus West/Nordwest
Sichtweite 10 km oder mehr
Leicht bewölkt in der Höhe von 2000 ft
Durchbrochene Bewölkung in der Höhe von 4800 ft

TAF: EGLF 231451Z 2315/2321 29005KT 9999 FEW020 BKN048

Wetterbeobachtungen und Prognosen von mehr als 4000 Flughäfen (METAR und TAF Bericht).

Die verfügbaren Stationen werden durch gelbe und rote Markierungen auf der Karte dargestellt.

Führen Sie die Maus auf sie, um den Namen der Station zu sehen.

Darauf klicken, um die Beobachtung von Wetterbeobachtungen und Prognosen zu sehen.

Um die Karte zu ändern : klicken Sie auf den grünen Tasten mit einem schwarzen Kreuz Zum Vergrößern, auf den grünen Button mit einem Gedankenstrich zu verkleinern, oder auf die grünen Pfeile für benachbarte Karten.


METAR-TAF: